KMER/MER METAR and TAF weather

Enter ICAO airport designator
Station Type Date Time Source
KMER METAR 2019/10/20 19:45 UTC NOAA

KMER 201945Z 32014G20KT 10SM SKC 20/11 A3011


Station Type Date Time Source
KMER Decoded METAR 2019/10/20 19:45 UTC NOAA

Merced / Castle Air Force Base, CA, United States (KMER) 37-22N 120-34W 60M
Oct 20, 2019 - 03:45 PM EDT / 2019.10.20 1945 UTC
Wind: from the NW (320 degrees) at 16 MPH (14 KT) gusting to 23 MPH (20 KT):0
Visibility: 10 mile(s):0
Sky conditions: clear
Temperature: 68 F (20 C)
Dew Point: 51 F (11 C)
Relative Humidity: 56%
Pressure (altimeter): 30.11 in. Hg (1019 hPa)
ob: KMER 201945Z 32014G20KT 10SM SKC 20/11 A3011
cycle: 20

Station Type Date Time Source
KMER TAF 2019/10/20 18:27 UTC NOAA

TAF KMER 201720Z 2018/2118 33007KT P6SM SKC
AMD NOT SKED

Example: see airport list